Time;durP1;ratioP1;P1;durP2;ratioP2;P2;SDS_P1;SDS_P2;PMS_P1;PMS_P2;Temp;Humidity;BMP_temperature;BMP_pressure;BME280_temperature;BME280_humidity;BME280_pressure;Samples;Min_cycle;Max_cycle;Signal;HPM_P1;HPM_P2
2021/08/15 00:02:08;;;;;;;;;;;19.50;99.90;;;;;;8426943;28;20396;-69
2021/08/15 00:06:09;;;;;;;;;;;19.20;99.90;;;;;;8408776;28;19912;-69
2021/08/15 00:10:10;;;;;;;;;;;19.40;99.90;;;;;;8408292;28;20296;-69
2021/08/15 00:14:10;;;;;;;;;;;19.10;99.90;;;;;;8426747;28;19921;-69
2021/08/15 00:18:11;;;;;;;;;;;19.40;99.90;;;;;;8425769;28;19915;-69
2021/08/15 00:22:11;;;;;;;;;;;19.50;99.90;;;;;;8426421;28;19908;-69
2021/08/15 00:26:11;;;;;;;;;;;19.40;99.90;;;;;;8426317;28;20432;-68
2021/08/15 00:30:14;;;;;;;;;;;19.20;99.90;;;;;;8425735;28;19915;-69
2021/08/15 00:34:15;;;;;;;;;;;19.10;99.90;;;;;;8408070;28;20434;-69
2021/08/15 00:38:15;;;;;;;;;;;18.90;99.90;;;;;;8426108;28;19908;-69
2021/08/15 00:42:16;;;;;;;;;;;18.90;99.90;;;;;;8425927;28;19908;-69
2021/08/15 00:46:17;;;;;;;;;;;18.80;99.90;;;;;;8425726;28;19958;-68
2021/08/15 00:50:18;;;;;;;;;;;19.20;99.90;;;;;;8407485;28;19916;-69
2021/08/15 00:54:19;;;;;;;;;;;19.30;99.90;;;;;;8425794;28;20302;-68
2021/08/15 00:58:19;;;;;;;;;;;19.30;99.90;;;;;;8407537;28;19942;-68
2021/08/15 01:02:20;;;;;;;;;;;19.10;99.90;;;;;;8425453;28;19908;-69
2021/08/15 01:06:20;;;;;;;;;;;19.20;99.90;;;;;;8425670;28;19912;-69
2021/08/15 01:10:21;;;;;;;;;;;19.00;99.90;;;;;;8407257;28;19908;-69
2021/08/15 01:14:21;;;;;;;;;;;18.90;99.90;;;;;;8425597;28;19908;-68
2021/08/15 01:18:26;;;;;;;;;;;18.80;99.90;;;;;;8407370;28;19908;-69
2021/08/15 01:22:27;;;;;;;;;;;18.70;99.90;;;;;;8425514;28;19999;-69
2021/08/15 01:26:27;;;;;;;;;;;18.80;99.90;;;;;;8425341;28;19985;-68
2021/08/15 01:30:28;;;;;;;;;;;18.80;99.90;;;;;;8430159;28;19908;-69
2021/08/15 01:34:28;;;;;;;;;;;18.60;99.90;;;;;;8432170;28;19908;-69
2021/08/15 01:38:30;;;;;;;;;;;18.60;99.90;;;;;;8431489;28;19959;-69
2021/08/15 01:42:30;;;;;;;;;;;18.60;99.90;;;;;;8431953;28;19908;-69
2021/08/15 01:46:32;;;;;;;;;;;18.40;99.90;;;;;;8431522;28;19974;-70
2021/08/15 01:50:32;;;;;;;;;;;18.30;99.90;;;;;;8412970;28;19942;-70
2021/08/15 01:54:33;;;;;;;;;;;18.20;99.90;;;;;;8431213;28;19916;-70
2021/08/15 01:58:33;;;;;;;;;;;18.10;99.90;;;;;;8430977;28;19908;-69
2021/08/15 02:02:34;;;;;;;;;;;18.40;99.90;;;;;;8413138;28;19914;-70
2021/08/15 02:06:34;;;;;;;;;;;18.30;99.90;;;;;;8430860;28;19919;-70
2021/08/15 02:10:35;;;;;;;;;;;18.20;99.90;;;;;;8430847;28;19911;-70
2021/08/15 02:14:36;;;;;;;;;;;18.00;99.90;;;;;;8430921;28;19955;-70
2021/08/15 02:18:36;;;;;;;;;;;17.90;99.90;;;;;;8412433;28;19942;-69
2021/08/15 02:22:36;;;;;;;;;;;18.10;99.90;;;;;;8412476;28;19912;-70
2021/08/15 02:26:37;;;;;;;;;;;18.00;99.90;;;;;;8430708;28;19916;-70
2021/08/15 02:30:37;;;;;;;;;;;18.00;99.90;;;;;;8430492;28;19908;-70
2021/08/15 02:34:38;;;;;;;;;;;17.90;99.90;;;;;;8412260;28;20002;-70
2021/08/15 02:38:38;;;;;;;;;;;17.80;99.90;;;;;;8411739;28;19947;-70
2021/08/15 02:42:40;;;;;;;;;;;17.80;99.90;;;;;;8429556;28;19924;-70
2021/08/15 02:46:40;;;;;;;;;;;17.70;99.90;;;;;;8429475;28;19920;-70
2021/08/15 02:50:41;;;;;;;;;;;17.70;99.90;;;;;;8429042;28;20042;-70
2021/08/15 02:54:42;;;;;;;;;;;18.00;99.90;;;;;;8410313;28;19908;-70
2021/08/15 02:58:42;;;;;;;;;;;18.00;99.90;;;;;;8429220;28;20323;-70
2021/08/15 03:02:43;;;;;;;;;;;17.90;99.90;;;;;;8429330;28;19915;-70
2021/08/15 03:06:43;;;;;;;;;;;18.10;99.90;;;;;;8428886;28;19920;-70
2021/08/15 03:10:44;;;;;;;;;;;18.00;99.90;;;;;;8410758;28;19961;-70
2021/08/15 03:14:44;;;;;;;;;;;17.90;99.90;;;;;;8428762;28;19921;-70
2021/08/15 03:18:45;;;;;;;;;;;17.80;99.90;;;;;;8428339;28;19912;-70
2021/08/15 03:22:45;;;;;;;;;;;17.70;99.90;;;;;;8410217;28;19908;-70
2021/08/15 03:26:46;;;;;;;;;;;17.70;99.90;;;;;;8428056;28;19990;-70
2021/08/15 03:30:47;;;;;;;;;;;18.00;99.90;;;;;;8428104;28;19908;-70
2021/08/15 03:34:47;;;;;;;;;;;17.90;99.90;;;;;;8427641;28;19912;-70
2021/08/15 03:38:47;;;;;;;;;;;17.70;99.90;;;;;;8427543;28;19916;-70
2021/08/15 03:42:48;;;;;;;;;;;17.80;99.90;;;;;;8427876;28;19952;-69
2021/08/15 03:46:48;;;;;;;;;;;17.80;99.90;;;;;;8427268;28;19916;-69
2021/08/15 03:50:49;;;;;;;;;;;18.00;99.90;;;;;;8426682;28;20447;-70
2021/08/15 03:54:49;;;;;;;;;;;17.90;99.90;;;;;;8426664;28;20270;-70
2021/08/15 03:58:50;;;;;;;;;;;17.90;99.90;;;;;;8426951;28;19958;-69
2021/08/15 04:02:50;;;;;;;;;;;17.70;99.90;;;;;;8427223;28;19908;-70
2021/08/15 04:06:51;;;;;;;;;;;17.60;99.90;;;;;;8408517;28;20290;-69
2021/08/15 04:10:51;;;;;;;;;;;17.50;99.90;;;;;;8408606;28;19915;-70
2021/08/15 04:14:52;;;;;;;;;;;17.50;99.90;;;;;;8426518;28;20420;-70
2021/08/15 04:18:54;;;;;;;;;;;17.40;99.90;;;;;;8457018;28;19912;-70
2021/08/15 04:22:55;;;;;;;;;;;17.30;99.90;;;;;;8410202;28;19912;-70
2021/08/15 04:26:55;;;;;;;;;;;17.40;99.90;;;;;;8392696;28;19991;-70
2021/08/15 04:30:56;;;;;;;;;;;17.20;99.90;;;;;;8392389;28;19908;-70
2021/08/15 04:34:56;;;;;;;;;;;17.40;99.90;;;;;;8392448;28;19970;-69
2021/08/15 04:38:57;;;;;;;;;;;17.60;99.90;;;;;;8410526;28;19913;-69
2021/08/15 04:42:57;;;;;;;;;;;17.90;99.90;;;;;;8407754;28;19918;-69
2021/08/15 04:46:58;;;;;;;;;;;17.70;99.90;;;;;;8425425;28;19927;-70
2021/08/15 04:50:58;;;;;;;;;;;17.50;99.90;;;;;;8425410;28;19951;-70
2021/08/15 04:54:58;;;;;;;;;;;17.40;99.90;;;;;;8425342;28;19914;-70
2021/08/15 04:58:59;;;;;;;;;;;17.40;99.90;;;;;;8425042;28;20676;-70
2021/08/15 05:02:59;;;;;;;;;;;17.40;99.90;;;;;;8425059;28;20441;-70
2021/08/15 05:07:00;;;;;;;;;;;17.40;99.90;;;;;;8425166;28;19919;-70
2021/08/15 05:11:00;;;;;;;;;;;17.60;99.90;;;;;;8425134;28;19998;-70
2021/08/15 05:15:01;;;;;;;;;;;17.70;99.90;;;;;;8425156;28;19915;-70
2021/08/15 05:19:01;;;;;;;;;;;18.00;99.90;;;;;;8406158;28;20298;-70
2021/08/15 05:23:02;;;;;;;;;;;18.20;99.90;;;;;;8424733;28;19908;-70
2021/08/15 05:27:02;;;;;;;;;;;18.30;99.90;;;;;;8405923;28;19961;-70
2021/08/15 05:31:03;;;;;;;;;;;18.50;99.90;;;;;;8431564;28;20006;-70
2021/08/15 05:35:04;;;;;;;;;;;18.80;99.90;;;;;;8430333;28;19973;-69
2021/08/15 05:39:05;;;;;;;;;;;19.00;99.90;;;;;;8440910;28;19988;-69
2021/08/15 05:43:05;;;;;;;;;;;19.30;99.90;;;;;;8440071;28;19909;-69
2021/08/15 05:47:08;;;;;;;;;;;19.50;99.90;;;;;;8437603;28;19981;-69
2021/08/15 05:51:08;;;;;;;;;;;19.70;99.90;;;;;;8433500;28;20011;-69
2021/08/15 05:55:09;;;;;;;;;;;20.00;99.90;;;;;;8432929;28;20322;-68
2021/08/15 05:59:09;;;;;;;;;;;20.10;99.90;;;;;;8440200;28;20340;-69
2021/08/15 06:03:10;;;;;;;;;;;20.30;99.90;;;;;;8429178;28;20003;-69
2021/08/15 06:07:11;;;;;;;;;;;20.60;99.90;;;;;;8411486;28;19924;-69
2021/08/15 06:11:14;;;;;;;;;;;20.80;99.90;;;;;;8422116;28;19995;-69
2021/08/15 06:15:14;;;;;;;;;;;21.20;99.90;;;;;;8440114;28;19912;-69
2021/08/15 06:19:15;;;;;;;;;;;21.40;99.90;;;;;;8431846;28;20018;-69
2021/08/15 06:23:16;;;;;;;;;;;21.70;99.90;;;;;;8423408;28;19919;-69
2021/08/15 06:27:16;;;;;;;;;;;22.00;99.90;;;;;;8433495;28;19916;-71
2021/08/15 06:31:17;;;;;;;;;;;22.40;99.90;;;;;;8445420;28;19908;-71
2021/08/15 06:35:18;;;;;;;;;;;22.40;99.90;;;;;;8418925;28;20003;-71
2021/08/15 06:39:19;;;;;;;;;;;22.70;99.90;;;;;;8435493;28;20357;-68
2021/08/15 06:43:19;;;;;;;;;;;22.80;99.90;;;;;;8437713;28;19956;-68
2021/08/15 06:47:20;;;;;;;;;;;22.90;99.90;;;;;;8443277;28;19961;-68
2021/08/15 06:51:20;;;;;;;;;;;23.00;99.90;;;;;;8442350;28;19919;-68
2021/08/15 06:55:21;;;;;;;;;;;23.20;99.90;;;;;;8437082;28;19998;-68
2021/08/15 06:59:21;;;;;;;;;;;23.60;99.90;;;;;;8428678;28;19920;-68
2021/08/15 07:03:22;;;;;;;;;;;23.80;99.90;;;;;;8429097;28;19938;-68
2021/08/15 07:07:22;;;;;;;;;;;23.90;99.90;;;;;;8410233;28;19917;-68
2021/08/15 07:11:23;;;;;;;;;;;23.90;99.90;;;;;;8428617;28;19980;-68
2021/08/15 07:15:28;;;;;;;;;;;24.10;99.90;;;;;;8428250;28;19908;-68
2021/08/15 07:19:28;;;;;;;;;;;24.20;99.90;;;;;;8427925;28;20293;-68
2021/08/15 07:23:29;;;;;;;;;;;24.40;99.90;;;;;;8428361;28;19908;-68
2021/08/15 07:27:30;;;;;;;;;;;24.50;99.90;;;;;;8439514;28;19912;-68
2021/08/15 07:31:31;;;;;;;;;;;24.70;99.90;;;;;;8446547;28;19912;-68
2021/08/15 07:35:32;;;;;;;;;;;24.80;99.90;;;;;;8418064;28;20433;-68
2021/08/15 07:39:32;;;;;;;;;;;25.00;99.90;;;;;;8413364;28;19912;-68
2021/08/15 07:43:33;;;;;;;;;;;25.10;99.90;;;;;;8435812;28;19908;-68
2021/08/15 07:47:33;;;;;;;;;;;25.20;99.90;;;;;;8460699;22;20030;-66
2021/08/15 07:51:34;;;;;;;;;;;25.50;99.90;;;;;;8452692;28;20490;-67
2021/08/15 07:55:34;;;;;;;;;;;25.80;99.90;;;;;;8428722;28;20301;-67
2021/08/15 07:59:35;;;;;;;;;;;26.00;99.90;;;;;;8432336;28;19930;-67
2021/08/15 08:03:35;;;;;;;;;;;26.20;99.90;;;;;;8428948;28;19912;-67
2021/08/15 08:07:36;;;;;;;;;;;26.20;99.90;;;;;;8418414;28;19920;-64
2021/08/15 08:11:36;;;;;;;;;;;26.40;99.90;;;;;;8410847;28;19947;-64
2021/08/15 08:15:37;;;;;;;;;;;26.40;99.90;;;;;;8390748;28;19912;-64
2021/08/15 08:19:38;;;;;;;;;;;26.40;99.90;;;;;;8391233;28;19912;-65
2021/08/15 08:23:39;;;;;;;;;;;26.90;99.90;;;;;;8398088;28;19912;-64
2021/08/15 08:27:39;;;;;;;;;;;27.40;99.90;;;;;;8373467;28;19913;-64
2021/08/15 08:31:40;;;;;;;;;;;27.40;99.90;;;;;;8382764;28;19912;-65
2021/08/15 08:35:40;;;;;;;;;;;27.60;99.90;;;;;;8390783;28;19966;-65
2021/08/15 08:39:40;;;;;;;;;;;27.80;99.90;;;;;;8391685;28;19923;-65
2021/08/15 08:43:42;;;;;;;;;;;27.80;99.90;;;;;;8424681;28;19942;-65
2021/08/15 08:47:42;;;;;;;;;;;28.00;99.90;;;;;;8406050;28;20302;-66
2021/08/15 08:51:46;;;;;;;;;;;28.20;99.90;;;;;;8404554;28;19912;-65
2021/08/15 08:55:47;;;;;;;;;;;28.30;99.90;;;;;;8410978;28;19971;-64
2021/08/15 08:59:48;;;;;;;;;;;28.70;99.90;;;;;;8407970;28;20515;-64
2021/08/15 09:03:48;;;;;;;;;;;29.10;99.90;;;;;;8390232;28;19918;-65
2021/08/15 09:07:49;;;;;;;;;;;29.30;99.90;;;;;;8423499;28;20408;-64
2021/08/15 09:11:51;;;;;;;;;;;29.60;99.90;;;;;;8424980;28;20429;-65
2021/08/15 09:15:55;;;;;;;;;;;29.60;99.90;;;;;;8432157;28;20412;-65
2021/08/15 09:19:58;;;;;;;;;;;29.70;99.90;;;;;;8431899;28;19973;-64
2021/08/15 09:23:59;;;;;;;;;;;29.60;99.90;;;;;;8402416;28;19920;-65
2021/08/15 09:28:00;;;;;;;;;;;29.40;99.90;;;;;;8415391;28;19973;-65
2021/08/15 09:32:01;;;;;;;;;;;30.00;99.90;;;;;;8438148;28;19935;-65
2021/08/15 09:36:01;;;;;;;;;;;30.40;99.90;;;;;;8423792;28;19912;-65
2021/08/15 09:40:19;;;;;;;;;;;30.50;99.90;;;;;;8429447;28;20002;-64
2021/08/15 09:44:21;;;;;;;;;;;30.40;99.90;;;;;;8440754;28;20378;-64
2021/08/15 09:48:24;;;;;;;;;;;30.40;99.90;;;;;;8434072;28;19916;-64
2021/08/15 09:52:37;;;;;;;;;;;30.50;99.90;;;;;;8415971;28;19912;-65
2021/08/15 09:56:39;;;;;;;;;;;30.80;99.90;;;;;;8400131;28;20413;-65
2021/08/15 10:00:39;;;;;;;;;;;31.50;99.90;;;;;;8403632;28;19916;-65
2021/08/15 10:04:40;;;;;;;;;;;31.20;99.90;;;;;;8407773;28;19915;-64
2021/08/15 10:08:41;;;;;;;;;;;30.60;99.90;;;;;;8412758;28;19961;-64
2021/08/15 10:12:41;;;;;;;;;;;30.80;99.90;;;;;;8430794;28;19908;-65
2021/08/15 10:16:58;;;;;;;;;;;30.80;99.90;;;;;;8412564;28;19934;-65
2021/08/15 10:21:00;;;;;;;;;;;31.20;99.90;;;;;;8430475;28;19912;-65
2021/08/15 10:25:04;;;;;;;;;;;31.50;99.90;;;;;;8412092;28;19912;-65
2021/08/15 10:29:05;;;;;;;;;;;31.50;99.90;;;;;;8429414;28;19908;-65
2021/08/15 10:33:15;;;;;;;;;;;31.80;99.90;;;;;;8429894;28;19915;-65
2021/08/15 10:37:24;;;;;;;;;;;31.80;99.90;;;;;;8429643;28;19912;-65
2021/08/15 10:41:43;;;;;;;;;;;32.40;99.90;;;;;;8429688;28;20286;-65
2021/08/15 10:46:04;;;;;;;;;;;33.30;99.90;;;;;;8429166;28;19939;-65
2021/08/15 10:50:05;;;;;;;;;;;32.70;99.90;;;;;;8428989;28;20384;-65
2021/08/15 10:54:06;;;;;;;;;;;31.30;99.90;;;;;;8428771;28;19935;-64
2021/08/15 10:58:26;;;;;;;;;;;30.90;99.90;;;;;;8428749;28;19915;-65
2021/08/15 11:02:33;;;;;;;;;;;31.40;99.90;;;;;;8428213;28;19908;-65
2021/08/15 11:06:34;;;;;;;;;;;31.00;99.90;;;;;;8428921;28;19912;-64
2021/08/15 11:10:54;;;;;;;;;;;29.50;99.90;;;;;;8428209;28;20374;-64
2021/08/15 11:14:56;;;;;;;;;;;29.10;99.90;;;;;;8428496;28;19915;-64
2021/08/15 11:19:11;;;;;;;;;;;29.10;99.90;;;;;;8428123;28;19908;-64
2021/08/15 11:23:13;;;;;;;;;;;29.10;99.90;;;;;;8428348;28;19915;-65
2021/08/15 11:27:28;;;;;;;;;;;29.00;99.90;;;;;;8427590;28;20428;-65
2021/08/15 11:31:34;;;;;;;;;;;29.10;99.90;;;;;;8428112;28;19912;-65
2021/08/15 11:35:43;;;;;;;;;;;32.30;99.90;;;;;;8427863;28;19908;-65
2021/08/15 11:39:44;;;;;;;;;;;36.50;99.90;;;;;;8427540;28;19915;-65
2021/08/15 11:43:53;;;;;;;;;;;39.00;95.50;;;;;;8427870;28;20382;-66
2021/08/15 11:47:54;;;;;;;;;;;39.40;90.40;;;;;;8408865;28;19916;-66
2021/08/15 11:52:10;;;;;;;;;;;41.40;77.60;;;;;;8427334;28;19908;-66
2021/08/15 11:56:12;;;;;;;;;;;41.70;66.30;;;;;;8426943;28;20370;-66
2021/08/15 12:00:13;;;;;;;;;;;43.10;61.30;;;;;;8408798;28;19912;-66
2021/08/15 12:04:14;;;;;;;;;;;44.10;51.90;;;;;;8427186;28;19912;-66
2021/08/15 12:08:15;;;;;;;;;;;44.00;50.30;;;;;;8426754;28;19947;-66
2021/08/15 12:12:17;;;;;;;;;;;43.90;55.50;;;;;;8425730;28;21312;-66
2021/08/15 12:16:21;;;;;;;;;;;42.50;52.40;;;;;;8427078;28;19912;-65
2021/08/15 12:20:23;;;;;;;;;;;39.80;59.20;;;;;;8408421;28;19908;-65
2021/08/15 12:24:25;;;;;;;;;;;37.50;65.30;;;;;;8426519;28;19908;-65
2021/08/15 12:28:30;;;;;;;;;;;35.70;71.90;;;;;;8425479;28;19912;-65
2021/08/15 12:32:31;;;;;;;;;;;34.20;76.30;;;;;;8412626;28;19912;-65
2021/08/15 12:36:39;;;;;;;;;;;33.00;88.40;;;;;;8408391;28;19915;-65
2021/08/15 12:40:40;;;;;;;;;;;31.60;97.30;;;;;;8407972;28;19930;-66
2021/08/15 12:44:53;;;;;;;;;;;30.30;99.70;;;;;;8407277;28;19912;-65
2021/08/15 12:48:53;;;;;;;;;;;29.60;99.90;;;;;;8407536;28;19916;-65
2021/08/15 12:53:01;;;;;;;;;;;28.60;99.90;;;;;;8407558;28;19908;-65
2021/08/15 12:57:02;;;;;;;;;;;27.70;99.90;;;;;;8407948;28;20362;-65
2021/08/15 13:01:03;;;;;;;;;;;27.20;99.90;;;;;;8406749;28;19912;-65
2021/08/15 13:05:06;;;;;;;;;;;26.90;99.90;;;;;;8418673;28;20487;-65
2021/08/15 13:09:06;;;;;;;;;;;26.50;99.90;;;;;;8425145;28;20289;-65
2021/08/15 13:13:40;;;;;;;;;;;26.00;99.90;;;;;;8437673;28;19959;-65
2021/08/15 13:22:50;;;;;;;;;;;24.50;99.90;;;;;;8418715;28;19919;-62
2021/08/15 13:26:50;;;;;;;;;;;22.40;99.90;;;;;;8397755;28;19920;-62
2021/08/15 13:30:51;;;;;;;;;;;21.40;99.90;;;;;;8398106;28;20015;-63
2021/08/15 13:34:56;;;;;;;;;;;21.10;99.90;;;;;;8408874;28;19916;-63
2021/08/15 13:38:56;;;;;;;;;;;21.00;99.90;;;;;;8444404;28;19919;-63
2021/08/15 13:42:57;;;;;;;;;;;20.80;99.90;;;;;;8450230;28;20003;-63
2021/08/15 13:46:58;;;;;;;;;;;20.80;99.90;;;;;;8426242;28;19955;-63
2021/08/15 13:50:58;;;;;;;;;;;20.60;99.90;;;;;;8418971;28;19913;-63
2021/08/15 13:54:59;;;;;;;;;;;20.70;99.90;;;;;;8400324;28;19918;-63
2021/08/15 13:58:59;;;;;;;;;;;21.00;99.90;;;;;;8430577;28;19974;-63
2021/08/15 14:03:00;;;;;;;;;;;21.20;99.90;;;;;;8454364;28;19914;-63
2021/08/15 14:07:01;;;;;;;;;;;21.30;99.90;;;;;;8415733;28;19967;-63
2021/08/15 14:11:01;;;;;;;;;;;21.20;99.90;;;;;;8409001;28;20003;-63
2021/08/15 14:15:03;;;;;;;;;;;20.90;99.90;;;;;;8409192;28;20678;-61
2021/08/15 14:19:04;;;;;;;;;;;21.30;99.90;;;;;;8390059;28;19958;-62
2021/08/15 14:23:04;;;;;;;;;;;22.00;99.90;;;;;;8407986;28;19909;-62
2021/08/15 14:27:05;;;;;;;;;;;23.30;99.90;;;;;;8407323;28;19917;-62
2021/08/15 14:31:05;;;;;;;;;;;28.20;99.90;;;;;;8407146;28;20339;-63
2021/08/15 14:35:06;;;;;;;;;;;32.80;99.90;;;;;;8406400;28;20530;-63
2021/08/15 14:39:07;;;;;;;;;;;36.00;99.90;;;;;;8411185;28;19996;-63
2021/08/15 14:43:07;;;;;;;;;;;37.90;92.10;;;;;;8408367;28;19916;-63
2021/08/15 14:47:07;;;;;;;;;;;38.80;85.10;;;;;;8400315;28;20345;-63
2021/08/15 14:51:08;;;;;;;;;;;40.40;78.00;;;;;;8402638;28;20037;-63
2021/08/15 14:55:09;;;;;;;;;;;41.70;71.50;;;;;;8406386;28;19935;-64
2021/08/15 14:59:09;;;;;;;;;;;42.00;61.40;;;;;;8411665;28;19916;-63
2021/08/15 15:03:10;;;;;;;;;;;41.50;61.60;;;;;;8443259;28;19916;-63
2021/08/15 15:07:10;;;;;;;;;;;40.20;65.20;;;;;;8432248;28;19916;-63
2021/08/15 15:11:11;;;;;;;;;;;37.90;71.80;;;;;;8413720;28;19913;-62
2021/08/15 15:15:13;;;;;;;;;;;36.30;71.90;;;;;;8394401;28;19924;-62
2021/08/15 15:19:14;;;;;;;;;;;36.30;74.40;;;;;;8432526;28;19916;-63
2021/08/15 15:23:17;;;;;;;;;;;35.80;81.40;;;;;;8420126;28;19912;-62
2021/08/15 15:27:17;;;;;;;;;;;36.80;81.30;;;;;;8406571;28;19923;-63
2021/08/15 15:31:18;;;;;;;;;;;38.90;78.10;;;;;;8407785;28;19940;-62
2021/08/15 15:35:19;;;;;;;;;;;40.70;70.70;;;;;;8433683;28;20422;-61
2021/08/15 15:39:20;;;;;;;;;;;41.30;64.40;;;;;;8404333;28;19912;-61
2021/08/15 15:43:20;;;;;;;;;;;40.00;62.40;;;;;;8411620;28;19998;-61
2021/08/15 15:47:22;;;;;;;;;;;37.30;70.70;;;;;;8423285;28;20440;-61
2021/08/15 15:51:23;;;;;;;;;;;35.70;80.10;;;;;;8429299;28;19916;-61
2021/08/15 15:55:23;;;;;;;;;;;34.80;84.50;;;;;;8430165;28;19951;-61
2021/08/15 15:59:26;;;;;;;;;;;33.00;90.40;;;;;;8456331;28;20406;-60
2021/08/15 16:03:27;;;;;;;;;;;31.50;95.50;;;;;;8438009;28;19911;-62
2021/08/15 16:07:28;;;;;;;;;;;30.40;99.90;;;;;;8439030;28;19953;-63
2021/08/15 16:11:29;;;;;;;;;;;29.50;99.90;;;;;;8440837;28;19926;-63
2021/08/15 16:15:30;;;;;;;;;;;29.10;99.90;;;;;;8456324;28;19908;-64
2021/08/15 16:19:31;;;;;;;;;;;28.40;99.90;;;;;;8470816;22;19934;-65
2021/08/15 16:23:31;;;;;;;;;;;28.10;99.90;;;;;;8452004;28;20073;-65
2021/08/15 16:27:32;;;;;;;;;;;27.80;99.90;;;;;;8422586;28;19924;-65
2021/08/15 16:31:32;;;;;;;;;;;27.70;99.90;;;;;;8394709;28;19920;-65
2021/08/15 16:35:33;;;;;;;;;;;27.10;99.90;;;;;;8424582;28;19973;-66
2021/08/15 16:39:33;;;;;;;;;;;26.90;99.90;;;;;;8425504;28;20010;-65
2021/08/15 16:43:34;;;;;;;;;;;26.90;99.90;;;;;;8421080;28;19916;-65
2021/08/15 16:47:36;;;;;;;;;;;26.80;99.90;;;;;;8423313;28;20018;-65
2021/08/15 16:51:37;;;;;;;;;;;26.80;99.90;;;;;;8423314;28;20394;-65
2021/08/15 16:55:44;;;;;;;;;;;26.40;99.90;;;;;;8378760;28;20038;-65
2021/08/15 16:59:44;;;;;;;;;;;26.20;99.90;;;;;;8398817;28;19960;-65
2021/08/15 17:03:45;;;;;;;;;;;26.50;99.90;;;;;;8409375;28;20386;-65
2021/08/15 17:07:45;;;;;;;;;;;26.80;99.90;;;;;;8378816;28;19916;-67
2021/08/15 17:11:46;;;;;;;;;;;26.90;99.90;;;;;;8412648;28;19943;-66
2021/08/15 17:15:47;;;;;;;;;;;26.60;99.90;;;;;;8399247;28;19912;-66
2021/08/15 17:19:47;;;;;;;;;;;26.30;99.90;;;;;;8419029;28;20363;-66
2021/08/15 17:23:48;;;;;;;;;;;26.30;99.90;;;;;;8423145;28;19916;-68
2021/08/15 17:27:48;;;;;;;;;;;26.20;99.90;;;;;;8418168;28;20040;-66
2021/08/15 17:31:49;;;;;;;;;;;25.90;99.90;;;;;;8423522;28;19943;-66
2021/08/15 17:35:49;;;;;;;;;;;25.90;99.90;;;;;;8414928;28;19924;-66
2021/08/15 17:39:50;;;;;;;;;;;25.70;99.90;;;;;;8398184;28;19916;-66
2021/08/15 17:43:50;;;;;;;;;;;25.40;99.90;;;;;;8378356;28;19912;-66
2021/08/15 17:47:51;;;;;;;;;;;25.20;99.90;;;;;;8406095;28;19923;-66
2021/08/15 17:51:52;;;;;;;;;;;25.00;99.90;;;;;;8399635;28;20393;-67
2021/08/15 17:55:52;;;;;;;;;;;24.70;99.90;;;;;;8402638;28;19919;-66
2021/08/15 17:59:53;;;;;;;;;;;24.70;99.90;;;;;;8389739;28;19908;-66
2021/08/15 18:03:53;;;;;;;;;;;24.40;99.90;;;;;;8390106;28;20358;-66
2021/08/15 18:07:53;;;;;;;;;;;24.20;99.90;;;;;;8396079;28;19916;-65
2021/08/15 18:11:54;;;;;;;;;;;24.00;99.90;;;;;;8409441;28;19920;-65
2021/08/15 18:15:54;;;;;;;;;;;23.80;99.90;;;;;;8414520;28;19962;-66
2021/08/15 18:19:55;;;;;;;;;;;23.50;99.90;;;;;;8409093;28;19920;-67
2021/08/15 18:23:55;;;;;;;;;;;23.30;99.90;;;;;;8402973;28;19938;-69
2021/08/15 18:27:56;;;;;;;;;;;23.30;99.90;;;;;;8410850;28;19916;-67
2021/08/15 18:31:57;;;;;;;;;;;23.00;99.90;;;;;;8411091;28;19908;-66
2021/08/15 18:35:57;;;;;;;;;;;22.80;99.90;;;;;;8411737;28;20282;-65
2021/08/15 18:39:57;;;;;;;;;;;22.90;99.90;;;;;;8412566;28;19913;-66
2021/08/15 18:43:58;;;;;;;;;;;22.60;99.90;;;;;;8397412;28;19916;-68
2021/08/15 18:47:58;;;;;;;;;;;22.60;99.90;;;;;;8398764;28;19923;-67
2021/08/15 18:51:59;;;;;;;;;;;22.40;99.90;;;;;;8382470;28;19912;-66
2021/08/15 18:56:00;;;;;;;;;;;22.50;99.90;;;;;;8385920;28;19920;-66
2021/08/15 19:00:00;;;;;;;;;;;22.20;99.90;;;;;;8399740;28;19909;-66
2021/08/15 19:04:01;;;;;;;;;;;21.90;99.90;;;;;;8393576;28;20266;-67
2021/08/15 19:08:01;;;;;;;;;;;22.00;99.90;;;;;;8376915;28;19912;-66
2021/08/15 19:12:02;;;;;;;;;;;22.00;99.90;;;;;;8413567;28;20049;-66
2021/08/15 19:16:03;;;;;;;;;;;21.80;99.90;;;;;;8419145;28;20425;-66
2021/08/15 19:20:03;;;;;;;;;;;21.60;99.90;;;;;;8412909;28;19923;-67
2021/08/15 19:24:04;;;;;;;;;;;21.60;99.90;;;;;;8425754;28;19912;-66
2021/08/15 19:28:04;;;;;;;;;;;21.90;99.90;;;;;;8398081;28;19916;-68
2021/08/15 19:32:06;;;;;;;;;;;21.80;99.90;;;;;;8404950;28;19938;-69
2021/08/15 19:36:07;;;;;;;;;;;21.70;99.90;;;;;;8425007;28;20062;-69
2021/08/15 19:40:09;;;;;;;;;;;21.50;99.90;;;;;;8423800;28;20429;-69
2021/08/15 19:44:09;;;;;;;;;;;21.40;99.90;;;;;;8406604;28;20003;-69
2021/08/15 19:48:10;;;;;;;;;;;21.50;99.90;;;;;;8411131;28;20358;-68
2021/08/15 19:52:10;;;;;;;;;;;21.60;99.90;;;;;;8408070;28;19912;-70
2021/08/15 19:56:11;;;;;;;;;;;21.30;99.90;;;;;;8427022;28;19915;-68
2021/08/15 20:00:12;;;;;;;;;;;21.30;99.90;;;;;;8409767;28;19912;-67
2021/08/15 20:04:14;;;;;;;;;;;21.20;99.90;;;;;;8418546;28;20408;-67
2021/08/15 20:08:14;;;;;;;;;;;21.00;99.90;;;;;;8409388;28;20018;-67
2021/08/15 20:12:15;;;;;;;;;;;21.10;99.90;;;;;;8409741;28;19912;-66
2021/08/15 20:16:15;;;;;;;;;;;21.10;99.90;;;;;;8409530;28;19908;-66
2021/08/15 20:20:17;;;;;;;;;;;21.10;99.90;;;;;;8410851;28;20366;-66
2021/08/15 20:24:17;;;;;;;;;;;21.20;99.90;;;;;;8423966;28;20010;-66
2021/08/15 20:28:17;;;;;;;;;;;21.10;99.90;;;;;;8426223;28;19958;-66
2021/08/15 20:32:18;;;;;;;;;;;21.20;99.90;;;;;;8426156;28;19912;-66
2021/08/15 20:36:19;;;;;;;;;;;21.10;99.90;;;;;;8425800;28;19909;-66
2021/08/15 20:40:19;;;;;;;;;;;21.10;99.90;;;;;;8407523;28;19912;-66
2021/08/15 20:44:20;;;;;;;;;;;21.20;99.90;;;;;;8426513;28;19990;-66
2021/08/15 20:48:21;;;;;;;;;;;21.10;99.90;;;;;;8425212;28;19954;-66
2021/08/15 20:52:21;;;;;;;;;;;21.20;99.90;;;;;;8425926;28;19915;-66
2021/08/15 20:56:22;;;;;;;;;;;21.00;99.90;;;;;;8426102;28;20356;-65
2021/08/15 21:00:22;;;;;;;;;;;20.90;99.90;;;;;;8425525;28;19908;-66
2021/08/15 21:04:23;;;;;;;;;;;20.80;99.90;;;;;;8425804;28;19908;-66
2021/08/15 21:08:23;;;;;;;;;;;20.80;99.90;;;;;;8425429;28;20262;-66
2021/08/15 21:12:24;;;;;;;;;;;20.80;99.90;;;;;;8425766;28;19955;-66
2021/08/15 21:16:24;;;;;;;;;;;20.70;99.90;;;;;;8425874;28;20025;-66
2021/08/15 21:20:25;;;;;;;;;;;20.60;99.90;;;;;;8425399;28;20349;-66
2021/08/15 21:24:26;;;;;;;;;;;20.60;99.90;;;;;;8426251;28;20312;-66
2021/08/15 21:28:26;;;;;;;;;;;20.50;99.90;;;;;;8425005;28;19912;-65
2021/08/15 21:32:27;;;;;;;;;;;20.40;99.90;;;;;;8425191;28;19915;-67
2021/08/15 21:36:28;;;;;;;;;;;20.40;99.90;;;;;;8424424;28;20267;-66
2021/08/15 21:40:29;;;;;;;;;;;20.20;99.90;;;;;;8406307;28;19915;-67
2021/08/15 21:44:29;;;;;;;;;;;20.30;99.90;;;;;;8425755;28;20289;-66
2021/08/15 21:48:30;;;;;;;;;;;20.10;99.90;;;;;;8431216;28;19912;-65
2021/08/15 21:52:31;;;;;;;;;;;20.30;99.90;;;;;;8431813;28;20206;-65
2021/08/15 21:56:31;;;;;;;;;;;20.30;99.90;;;;;;8431635;28;19930;-66
2021/08/15 22:00:33;;;;;;;;;;;20.20;99.90;;;;;;8412798;28;19909;-66
2021/08/15 22:04:34;;;;;;;;;;;20.10;99.90;;;;;;8431417;28;19913;-66
2021/08/15 22:08:34;;;;;;;;;;;19.80;99.90;;;;;;8430330;28;20388;-66
2021/08/15 22:12:35;;;;;;;;;;;19.80;99.90;;;;;;8430011;28;19912;-66
2021/08/15 22:16:36;;;;;;;;;;;19.90;99.90;;;;;;8429884;28;20537;-66
2021/08/15 22:20:36;;;;;;;;;;;19.70;99.90;;;;;;8429081;28;19920;-65
2021/08/15 22:24:37;;;;;;;;;;;19.80;99.90;;;;;;8429717;28;20006;-65
2021/08/15 22:28:38;;;;;;;;;;;19.80;99.90;;;;;;8415679;28;20418;-65
2021/08/15 22:32:39;;;;;;;;;;;19.90;99.90;;;;;;8430479;28;19948;-65
2021/08/15 22:36:39;;;;;;;;;;;19.70;99.90;;;;;;8430228;28;19995;-66
2021/08/15 22:40:40;;;;;;;;;;;19.60;99.90;;;;;;8429529;28;20401;-66
2021/08/15 22:44:40;;;;;;;;;;;19.40;99.90;;;;;;8430240;28;19915;-65
2021/08/15 22:48:41;;;;;;;;;;;19.50;99.90;;;;;;8429558;28;19912;-65
2021/08/15 22:52:43;;;;;;;;;;;19.60;99.90;;;;;;8429341;28;19912;-65
2021/08/15 22:56:45;;;;;;;;;;;19.50;99.90;;;;;;8428928;28;19908;-66
2021/08/15 23:00:45;;;;;;;;;;;19.60;99.90;;;;;;8429264;28;19946;-66
2021/08/15 23:04:45;;;;;;;;;;;19.50;99.90;;;;;;8429476;28;19912;-66
2021/08/15 23:08:46;;;;;;;;;;;19.40;99.90;;;;;;8428783;28;19919;-66
2021/08/15 23:12:46;;;;;;;;;;;19.30;99.90;;;;;;8428687;28;19915;-66
2021/08/15 23:16:47;;;;;;;;;;;19.20;99.90;;;;;;8429099;28;19912;-66
2021/08/15 23:20:47;;;;;;;;;;;19.20;99.90;;;;;;8409939;28;19923;-66
2021/08/15 23:24:48;;;;;;;;;;;19.20;99.90;;;;;;8428736;28;19943;-65
2021/08/15 23:28:48;;;;;;;;;;;19.40;99.90;;;;;;8428149;28;19916;-66